Plum Tree, Indiana
Current Conditions -  °F | °C
As of 8:35 AM on Sunday 23 Nov 2014 (Local Time) from KHHG Reporting Station
Overcast Overcast  
Wind Chill: 44°   Ceiling: 10000
Heat Index: 47°   Visibility: 10mi
Dew Point: 42°   Wind: 6mph
Humidity: 82%   Direction: 170°S
Pressure: 29.89"   Gusts: NA
Location:  40.6897°N, 85.3916°W
Report Text: KHHG 231335Z AUTO 17005KT 10SM SCT031 SCT075 OVC100 08/06 A2989 RMK AO2 T00840055
Loading
Personal Weather Stations






























Interactive Weather Map New forecast layout! Learn more

10-Day Weather Forecast

Advertisements
Track Severe Weather on mobile